createdAt,value
2018-04-12T00:01:28.730Z,99501.14
2018-04-12T00:03:56.135Z,99509.23
2018-04-12T00:06:23.552Z,99515.34
2018-04-12T00:08:50.956Z,99502.30
2018-04-12T00:11:18.368Z,99497.54
2018-04-12T00:13:45.804Z,99495.80
2018-04-12T00:16:13.963Z,99499.36
2018-04-12T00:18:41.375Z,99498.91
2018-04-12T00:21:08.784Z,99492.19
2018-04-12T00:23:36.345Z,99482.31
2018-04-12T00:26:03.780Z,99482.67
2018-04-12T00:28:31.188Z,99485.60
2018-04-12T00:30:58.612Z,99476.84
2018-04-12T00:33:26.101Z,99477.23
2018-04-12T00:35:53.511Z,99468.95
2018-04-12T00:38:20.919Z,99474.04
2018-04-12T00:40:48.452Z,99463.22
2018-04-12T00:43:15.868Z,99462.55
2018-04-12T00:45:43.283Z,99455.00
2018-04-12T00:48:10.704Z,99454.20
2018-04-12T00:50:38.115Z,99461.27
2018-04-12T00:53:05.527Z,99460.83
2018-04-12T00:55:32.952Z,99454.15
2018-04-12T00:58:01.169Z,99448.23
2018-04-12T01:00:28.589Z,99450.95
2018-04-12T01:02:55.992Z,99453.48
2018-04-12T01:05:23.410Z,99447.16
2018-04-12T01:07:50.828Z,99451.20
2018-04-12T01:10:18.236Z,99449.05
2018-04-12T01:12:45.651Z,99447.26
2018-04-12T01:15:13.065Z,99446.86
2018-04-12T01:17:40.483Z,99445.80
2018-04-12T01:20:07.895Z,99435.69
2018-04-12T01:22:35.323Z,99443.90
2018-04-12T01:25:02.730Z,99438.33
2018-04-12T01:27:30.158Z,99432.36
2018-04-12T01:29:57.583Z,99428.34
2018-04-12T01:32:24.995Z,99425.71
2018-04-12T01:34:52.427Z,99424.05
2018-04-12T01:37:19.861Z,99417.72
2018-04-12T01:39:47.290Z,99416.06
2018-04-12T01:42:14.697Z,99416.05
2018-04-12T01:44:42.115Z,99412.48
2018-04-12T01:47:09.520Z,99413.13
2018-04-12T01:49:36.940Z,99408.41
2018-04-12T01:52:04.348Z,99404.45
2018-04-12T01:54:31.815Z,99404.62
2018-04-12T01:56:59.193Z,99410.70
2018-04-12T01:59:26.751Z,99401.17
2018-04-12T02:01:54.164Z,99405.13
2018-04-12T02:04:21.574Z,99416.42
2018-04-12T02:06:48.995Z,99417.42
2018-04-12T02:09:16.524Z,99423.78
2018-04-12T02:11:43.953Z,99430.31
2018-04-12T02:14:11.372Z,99433.30
2018-04-12T02:16:38.795Z,99425.22
2018-04-12T02:19:06.213Z,99412.42
2018-04-12T02:21:33.628Z,99417.31
2018-04-12T02:24:01.034Z,99417.75
2018-04-12T02:26:28.451Z,99412.15
2018-04-12T02:28:55.868Z,99409.62
2018-04-12T02:31:23.263Z,99398.43
2018-04-12T02:33:50.683Z,99396.66
2018-04-12T02:36:18.093Z,99396.25
2018-04-12T02:38:45.507Z,99383.62
2018-04-12T02:41:12.932Z,99377.72
2018-04-12T02:43:40.364Z,99385.99
2018-04-12T02:46:07.793Z,99378.36
2018-04-12T02:48:35.199Z,99369.81
2018-04-12T02:51:02.611Z,99371.45
2018-04-12T02:53:30.038Z,99367.56
2018-04-12T02:55:57.492Z,99359.07
2018-04-12T02:58:24.912Z,99355.33
2018-04-12T03:00:52.324Z,99356.89
2018-04-12T03:03:20.025Z,99359.64
2018-04-12T03:05:47.451Z,99346.45
2018-04-12T03:08:14.864Z,99350.59
2018-04-12T03:10:42.281Z,99347.88
2018-04-12T03:13:09.913Z,99344.16
2018-04-12T03:15:37.324Z,99340.08
2018-04-12T03:18:04.729Z,99343.86
2018-04-12T03:20:32.152Z,99331.52
2018-04-12T03:22:59.559Z,99328.00
2018-04-12T03:25:26.989Z,99321.57
2018-04-12T03:27:54.407Z,99320.06
2018-04-12T03:30:22.036Z,99319.67
2018-04-12T03:32:49.437Z,99314.38
2018-04-12T03:35:16.844Z,99312.25
2018-04-12T03:37:44.264Z,99302.03
2018-04-12T03:40:11.674Z,99303.41
2018-04-12T03:42:39.231Z,99303.63
2018-04-12T03:45:06.647Z,99298.52
2018-04-12T03:47:34.048Z,99296.61
2018-04-12T03:50:01.486Z,99292.30
2018-04-12T03:52:28.878Z,99295.86
2018-04-12T03:54:56.321Z,99291.32
2018-04-12T03:57:23.720Z,99287.99
2018-04-12T03:59:51.360Z,99282.44
2018-04-12T04:02:18.775Z,99284.83
2018-04-12T04:04:46.188Z,99285.67
2018-04-12T04:07:13.612Z,99286.48
2018-04-12T04:09:41.015Z,99274.66
2018-04-12T04:12:08.436Z,99279.84
2018-04-12T04:18:04.560Z,99283.22
2018-04-12T04:20:43.846Z,99280.47
2018-04-12T04:23:11.260Z,99276.55
2018-04-12T04:25:38.663Z,99277.56
2018-04-12T04:28:06.073Z,99280.55
2018-04-12T04:30:33.488Z,99275.28
2018-04-12T04:33:00.914Z,99280.04
2018-04-12T04:35:28.320Z,99279.45
2018-04-12T04:37:55.742Z,99283.81
2018-04-12T04:40:23.159Z,99283.23
2018-04-12T04:42:50.591Z,99276.80
2018-04-12T04:45:18.036Z,99280.39
2018-04-12T04:47:45.436Z,99278.80
2018-04-12T04:50:12.835Z,99277.02
2018-04-12T04:52:40.255Z,99279.66
2018-04-12T04:55:07.679Z,99280.45
2018-04-12T04:57:35.088Z,99278.89
2018-04-12T05:00:02.926Z,99277.12
2018-04-12T05:02:30.335Z,99281.47
2018-04-12T05:04:57.740Z,99285.06
2018-04-12T05:07:25.212Z,99270.71
2018-04-12T05:09:52.602Z,99279.41
2018-04-12T05:12:20.014Z,99275.25
2018-04-12T05:14:47.718Z,99268.53
2018-04-12T05:17:15.139Z,99269.39
2018-04-12T05:19:42.545Z,99272.52
2018-04-12T05:22:09.967Z,99276.66
2018-04-12T05:24:37.368Z,99267.82
2018-04-12T05:27:04.792Z,99269.57
2018-04-12T05:29:32.203Z,99268.56
2018-04-12T05:31:59.644Z,99267.92
2018-04-12T05:34:27.065Z,99257.86
2018-04-12T05:36:54.486Z,99268.50
2018-04-12T05:39:21.899Z,99261.55
2018-04-12T05:41:49.425Z,99256.85
2018-04-12T05:44:16.824Z,99261.17
2018-04-12T05:46:44.233Z,99258.45
2018-04-12T05:49:11.657Z,99267.46
2018-04-12T05:51:39.068Z,99255.66
2018-04-12T05:54:06.520Z,99266.27
2018-04-12T05:56:33.919Z,99259.80
2018-04-12T05:59:01.340Z,99239.84
2018-04-12T06:01:28.752Z,99247.32
2018-04-12T06:03:56.200Z,99241.47
2018-04-12T06:06:23.625Z,99245.39
2018-04-12T06:08:51.027Z,99244.77
2018-04-12T06:11:18.475Z,99251.67
2018-04-12T06:13:45.877Z,99241.47
2018-04-12T06:16:13.548Z,99234.14
2018-04-12T06:18:40.958Z,99249.53
2018-04-12T06:21:08.374Z,99236.71
2018-04-12T06:23:35.787Z,99241.25
2018-04-12T06:26:03.218Z,99248.48
2018-04-12T06:28:30.717Z,99245.48
2018-04-12T06:30:58.248Z,99242.44
2018-04-12T06:33:25.660Z,99243.45
2018-04-12T06:35:53.065Z,99240.30
2018-04-12T06:38:20.483Z,99240.08
2018-04-12T06:40:48.017Z,99237.17
2018-04-12T06:43:15.427Z,99245.08
2018-04-12T06:45:42.839Z,99246.06
2018-04-12T06:48:10.259Z,99240.05
2018-04-12T06:50:37.666Z,99231.02
2018-04-12T06:53:05.148Z,99241.70
2018-04-12T06:55:32.560Z,99234.06
2018-04-12T06:57:59.981Z,99237.64
2018-04-12T07:00:27.385Z,99229.34
2018-04-12T07:02:54.827Z,99222.25
2018-04-12T07:05:22.228Z,99229.37
2018-04-12T07:07:49.656Z,99219.94
2018-04-12T07:10:17.068Z,99212.84
2018-04-12T07:12:44.500Z,99219.41
2018-04-12T07:15:11.901Z,99228.27
2018-04-12T07:17:39.309Z,99227.52
2018-04-12T07:20:06.741Z,99232.64
2018-04-12T07:22:34.140Z,99221.97
2018-04-12T07:25:01.572Z,99231.80
2018-04-12T07:27:28.976Z,99232.05
2018-04-12T07:29:56.404Z,99234.44
2018-04-12T07:32:23.805Z,99239.33
2018-04-12T07:34:51.552Z,99239.16
2018-04-12T07:37:18.995Z,99238.95
2018-04-12T07:39:46.400Z,99235.46
2018-04-12T07:42:13.860Z,99234.88
2018-04-12T07:44:41.264Z,99230.33
2018-04-12T07:47:08.700Z,99231.16
2018-04-12T07:49:36.100Z,99229.02
2018-04-12T07:52:03.684Z,99232.61
2018-04-12T07:54:31.089Z,99228.90
2018-04-12T07:56:58.576Z,99233.42
2018-04-12T07:59:25.995Z,99230.83
2018-04-12T08:01:53.436Z,99225.53
2018-04-12T08:04:20.831Z,99229.13
2018-04-12T08:06:48.252Z,99224.37
2018-04-12T08:09:15.666Z,99227.14
2018-04-12T08:11:43.295Z,99227.00
2018-04-12T08:14:10.704Z,99219.32
2018-04-12T08:16:38.108Z,99215.95
2018-04-12T08:19:05.528Z,99214.77
2018-04-12T08:21:32.960Z,99212.37
2018-04-12T08:24:00.359Z,99210.79
2018-04-12T08:26:27.784Z,99210.36
2018-04-12T08:28:55.274Z,99204.98
2018-04-12T08:31:22.640Z,99196.19
2018-04-12T08:33:50.115Z,99199.44
2018-04-12T08:36:17.527Z,99199.70
2018-04-12T08:38:44.965Z,99195.16
2018-04-12T08:41:12.637Z,99191.78
2018-04-12T08:43:40.045Z,99183.33
2018-04-12T08:46:07.444Z,99177.05
2018-04-12T08:48:34.904Z,99168.14
2018-04-12T08:51:02.327Z,99167.45
2018-04-12T08:53:29.792Z,99166.18
2018-04-12T08:55:57.199Z,99152.53
2018-04-12T08:58:24.626Z,99149.44
2018-04-12T09:00:52.024Z,99141.94
2018-04-12T09:03:19.456Z,99142.81
2018-04-12T09:05:46.865Z,99139.36
2018-04-12T09:08:14.488Z,99131.57
2018-04-12T09:10:41.895Z,99132.98
2018-04-12T09:13:09.299Z,99127.16
2018-04-12T09:15:36.734Z,99127.34
2018-04-12T09:18:04.139Z,99114.52
2018-04-12T09:20:31.564Z,99114.67
2018-04-12T09:22:58.972Z,99126.42
2018-04-12T09:25:26.388Z,99122.64
2018-04-12T09:27:53.812Z,99123.13
2018-04-12T09:30:21.304Z,99113.67
2018-04-12T09:32:48.704Z,99121.73
2018-04-12T09:35:16.137Z,99106.82
2018-04-12T09:37:43.543Z,99099.00
2018-04-12T09:40:10.966Z,99097.78
2018-04-12T09:42:38.364Z,99093.28
2018-04-12T09:45:05.788Z,99090.55
2018-04-12T09:47:33.191Z,99079.47
2018-04-12T09:50:00.610Z,99081.16
2018-04-12T09:52:28.016Z,99081.96
2018-04-12T09:54:55.472Z,99074.03
2018-04-12T09:57:22.908Z,99077.73
2018-04-12T09:59:50.373Z,99092.31
2018-04-12T10:02:17.736Z,99080.19
2018-04-12T10:04:50.769Z,99078.05
2018-04-12T10:07:18.199Z,99079.60
2018-04-12T10:09:45.637Z,99079.27
2018-04-12T10:12:13.051Z,99077.56
2018-04-12T10:14:40.476Z,99058.03
2018-04-12T10:17:07.896Z,99067.39
2018-04-12T10:19:35.299Z,99073.81
2018-04-12T10:22:02.719Z,99078.13
2018-04-12T10:24:30.158Z,99071.37
2018-04-12T10:26:57.729Z,99075.39
2018-04-12T10:29:25.186Z,99075.95
2018-04-12T10:31:52.683Z,99075.39
2018-04-12T10:34:20.378Z,99094.25
2018-04-12T10:36:47.848Z,99098.33
2018-04-12T10:39:15.256Z,99096.95
2018-04-12T10:41:42.774Z,99097.97
2018-04-12T10:44:10.163Z,99095.94
2018-04-12T10:46:37.604Z,99086.13
2018-04-12T10:49:05.031Z,99099.12
2018-04-12T10:51:32.461Z,99092.72
2018-04-12T10:54:00.203Z,99088.80
2018-04-12T10:56:27.611Z,99095.81
2018-04-12T10:58:55.023Z,99097.02
2018-04-12T11:01:22.689Z,99096.67
2018-04-12T11:03:50.118Z,99090.16
2018-04-12T11:06:17.560Z,99085.01
2018-04-12T11:08:44.969Z,99067.05
2018-04-12T11:11:12.400Z,99084.70
2018-04-12T11:13:39.809Z,99077.84
2018-04-12T11:16:07.434Z,99069.69
2018-04-12T11:18:34.843Z,99073.24
2018-04-12T11:21:02.261Z,99088.85
2018-04-12T11:23:29.710Z,99096.00
2018-04-12T11:25:57.113Z,99088.66
2018-04-12T11:28:24.516Z,99101.17
2018-04-12T11:30:52.145Z,99104.20
2018-04-12T11:33:19.553Z,99117.87
2018-04-12T11:35:47.023Z,99096.41
2018-04-12T11:38:14.787Z,99091.94
2018-04-12T11:40:42.204Z,99106.84
2018-04-12T11:43:09.636Z,99087.45
2018-04-12T11:45:37.147Z,99092.07
2018-04-12T11:48:04.562Z,99085.39
2018-04-12T11:50:31.992Z,99086.75
2018-04-12T11:52:59.412Z,99099.22
2018-04-12T11:55:26.845Z,99094.21
2018-04-12T11:57:54.245Z,99095.73
2018-04-12T12:00:21.667Z,99078.37
2018-04-12T12:02:49.070Z,99079.51
2018-04-12T12:05:16.488Z,99055.50
2018-04-12T12:07:43.939Z,99053.79
2018-04-12T12:10:11.360Z,99048.95
2018-04-12T12:12:38.780Z,99047.92
2018-04-12T12:15:06.208Z,99047.38
2018-04-12T12:17:33.672Z,99045.72
2018-04-12T12:20:01.085Z,99048.52
2018-04-12T12:22:28.529Z,99056.65
2018-04-12T12:24:55.924Z,99054.11
2018-04-12T12:27:23.351Z,99042.19
2018-04-12T12:29:50.788Z,99048.46
2018-04-12T12:32:18.351Z,99045.00
2018-04-12T12:34:45.780Z,99043.61
2018-04-12T12:37:13.217Z,99041.12
2018-04-12T12:39:40.604Z,99031.39
2018-04-12T12:42:08.029Z,99019.27
2018-04-12T12:44:35.637Z,99022.50
2018-04-12T12:47:03.070Z,99019.02
2018-04-12T12:49:30.484Z,99010.94
2018-04-12T12:51:57.927Z,99018.63
2018-04-12T12:54:25.335Z,99012.08
2018-04-12T12:56:52.784Z,99020.91
2018-04-12T12:59:20.204Z,99018.43
2018-04-12T13:01:47.651Z,99024.84
2018-04-12T13:04:15.051Z,99017.77
2018-04-12T13:06:42.459Z,99017.78
2018-04-12T13:09:09.869Z,99014.89
2018-04-12T13:11:37.604Z,99019.47
2018-04-12T13:14:05.011Z,99016.03
2018-04-12T13:16:32.429Z,99019.56
2018-04-12T13:18:59.844Z,99010.44
2018-04-12T13:21:27.255Z,98998.45
2018-04-12T13:23:54.675Z,98997.23
2018-04-12T13:26:22.087Z,99014.26
2018-04-12T13:28:49.508Z,99014.88
2018-04-12T13:31:16.932Z,99018.28
2018-04-12T13:33:44.340Z,99005.52
2018-04-12T13:36:11.767Z,98999.51
2018-04-12T13:38:39.200Z,99016.63
2018-04-12T13:41:06.613Z,99020.81
2018-04-12T13:43:34.065Z,99023.53
2018-04-12T13:46:01.496Z,99001.38
2018-04-12T13:48:28.908Z,99003.70
2018-04-12T13:50:56.344Z,98992.17
2018-04-12T13:53:23.749Z,98980.89
2018-04-12T13:55:51.179Z,98979.87
2018-04-12T13:58:18.590Z,98987.69
2018-04-12T14:00:46.076Z,98981.90
2018-04-12T14:03:13.552Z,98970.34
2018-04-12T14:05:41.003Z,98970.63
2018-04-12T14:08:08.454Z,98980.56
2018-04-12T14:10:36.163Z,98973.38
2018-04-12T14:13:03.567Z,98965.05
2018-04-12T14:15:30.971Z,98970.60
2018-04-12T14:17:58.412Z,98973.01
2018-04-12T14:20:25.900Z,98980.54
2018-04-12T14:22:53.317Z,98974.63
2018-04-12T14:25:20.744Z,98976.27
2018-04-12T14:27:48.151Z,98970.77
2018-04-12T14:30:15.688Z,98988.43
2018-04-12T14:32:43.203Z,98971.58
2018-04-12T14:35:10.604Z,98972.46
2018-04-12T14:37:38.013Z,98996.64
2018-04-12T14:40:05.432Z,98979.73
2018-04-12T14:42:32.848Z,98992.39
2018-04-12T14:45:00.308Z,98982.72
2018-04-12T14:47:27.747Z,98969.44
2018-04-12T14:49:55.133Z,98983.56
2018-04-12T14:52:22.537Z,98979.23
2018-04-12T14:54:49.981Z,98972.62
2018-04-12T14:57:17.366Z,98982.20
2018-04-12T14:59:44.767Z,98965.72
2018-04-12T15:02:12.187Z,98959.44
2018-04-12T15:04:39.608Z,98971.34
2018-04-12T15:07:07.092Z,98974.25
2018-04-12T15:09:34.503Z,98972.86
2018-04-12T15:12:02.197Z,98981.18
2018-04-12T15:14:29.609Z,98990.44
2018-04-12T15:16:57.147Z,98995.44
2018-04-12T15:19:24.583Z,98981.18
2018-04-12T15:21:52.068Z,98984.94
2018-04-12T15:24:19.465Z,98976.69
2018-04-12T15:26:46.908Z,98971.31
2018-04-12T15:29:14.343Z,98962.83
2018-04-12T15:31:41.744Z,98971.69
2018-04-12T15:34:09.159Z,98970.11
2018-04-12T15:36:36.572Z,98973.25
2018-04-12T15:39:03.992Z,98972.91
2018-04-12T15:41:31.402Z,98984.28
2018-04-12T15:43:58.821Z,98969.80
2018-04-12T15:46:26.225Z,98980.20
2018-04-12T15:48:53.648Z,98969.25
2018-04-12T15:51:21.058Z,98969.44
2018-04-12T15:53:48.897Z,98960.80
2018-04-12T15:56:16.307Z,98966.36
2018-04-12T15:58:43.699Z,98965.30
2018-04-12T16:01:11.124Z,98961.00
2018-04-12T16:03:38.539Z,98961.33
2018-04-12T16:06:05.964Z,98958.88
2018-04-12T16:08:33.367Z,98946.97
2018-04-12T16:11:00.784Z,98953.15
2018-04-12T16:13:28.204Z,98950.13
2018-04-12T16:15:55.613Z,98955.23
2018-04-12T16:18:23.036Z,98963.44
2018-04-12T16:20:50.468Z,98961.50
2018-04-12T16:23:17.905Z,98958.49
2018-04-12T16:25:45.327Z,98958.69
2018-04-12T16:28:12.843Z,98961.08
2018-04-12T16:30:40.265Z,98959.75
2018-04-12T16:33:07.695Z,98955.09
2018-04-12T16:35:35.142Z,98954.91
2018-04-12T16:38:02.556Z,98965.88
2018-04-12T16:40:30.094Z,98955.77
2018-04-12T16:42:57.502Z,98950.39
2018-04-12T16:45:24.929Z,98957.67
2018-04-12T16:47:52.361Z,98963.27
2018-04-12T16:50:19.755Z,98963.08
2018-04-12T16:52:47.215Z,98963.08
2018-04-12T16:55:14.641Z,98963.63
2018-04-12T16:57:42.308Z,98971.12
2018-04-12T17:00:09.795Z,98967.99
2018-04-12T17:02:37.225Z,98972.33
2018-04-12T17:05:04.652Z,98976.16
2018-04-12T17:07:32.051Z,98980.34
2018-04-12T17:09:59.479Z,98973.30
2018-04-12T17:12:26.919Z,98965.53
2018-04-12T17:14:54.340Z,98975.91
2018-04-12T17:17:21.776Z,98975.77
2018-04-12T17:19:49.201Z,98969.54
2018-04-12T17:22:16.612Z,98965.20
2018-04-12T17:24:44.155Z,98964.63
2018-04-12T17:27:11.531Z,98971.31
2018-04-12T17:29:38.927Z,98978.78
2018-04-12T17:32:06.366Z,98978.53
2018-04-12T17:34:33.773Z,98981.51
2018-04-12T17:37:01.482Z,98987.55
2018-04-12T17:39:28.891Z,98989.83
2018-04-12T17:41:56.318Z,98994.44
2018-04-12T17:44:23.743Z,99000.12
2018-04-12T17:46:51.140Z,98998.33
2018-04-12T17:49:18.582Z,99009.55
2018-04-12T17:51:46.021Z,99008.22
2018-04-12T17:54:13.443Z,98998.02
2018-04-12T17:56:40.843Z,99000.11
2018-04-12T17:59:08.275Z,99003.17
2018-04-12T18:01:35.704Z,99014.03
2018-04-12T18:04:03.124Z,99017.94
2018-04-12T18:06:30.550Z,99029.20
2018-04-12T18:08:57.995Z,99032.67
2018-04-12T18:11:25.416Z,99041.37
2018-04-12T18:13:53.102Z,99042.85
2018-04-12T18:16:20.506Z,99042.54
2018-04-12T18:18:47.962Z,99047.81
2018-04-12T18:21:15.405Z,99045.61
2018-04-12T18:23:42.847Z,99048.14
2018-04-12T18:26:10.267Z,99050.03
2018-04-12T18:28:37.679Z,99048.72
2018-04-12T18:31:05.114Z,99046.43
2018-04-12T18:33:32.519Z,99058.88
2018-04-12T18:35:59.950Z,99059.16
2018-04-12T18:38:27.429Z,99064.97
2018-04-12T18:40:54.840Z,99063.05
2018-04-12T18:43:22.256Z,99069.88
2018-04-12T18:45:49.829Z,99069.94
2018-04-12T18:48:17.246Z,99066.02
2018-04-12T18:50:44.653Z,99071.71
2018-04-12T18:53:12.177Z,99081.17
2018-04-12T18:55:39.594Z,99076.32
2018-04-12T18:58:07.088Z,99077.81
2018-04-12T19:00:34.508Z,99073.50
2018-04-12T19:03:01.915Z,99072.38
2018-04-12T19:05:29.327Z,99067.32
2018-04-12T19:07:56.763Z,99074.17
2018-04-12T19:10:24.211Z,99070.76
2018-04-12T19:12:51.618Z,99082.02
2018-04-12T19:15:19.055Z,99091.85
2018-04-12T19:17:46.465Z,99093.16
2018-04-12T19:20:13.889Z,99093.81
2018-04-12T19:22:41.287Z,99091.33
2018-04-12T19:25:08.737Z,99090.81
2018-04-12T19:27:36.209Z,99086.34
2018-04-12T19:30:03.578Z,99086.21
2018-04-12T19:32:31.012Z,99089.66
2018-04-12T19:34:58.492Z,99089.56
2018-04-12T19:37:25.964Z,99088.04
2018-04-12T19:39:53.385Z,99085.95
2018-04-12T19:42:20.976Z,99080.89
2018-04-12T19:44:48.392Z,99087.76
2018-04-12T19:47:15.800Z,99096.60
2018-04-12T19:49:43.235Z,99093.72
2018-04-12T19:52:10.642Z,99093.98
2018-04-12T19:54:38.079Z,99096.50
2018-04-12T19:57:05.480Z,99092.83
2018-04-12T19:59:32.899Z,99089.45
2018-04-12T20:02:00.363Z,99090.48
2018-04-12T20:04:27.825Z,99090.30
2018-04-12T20:06:55.252Z,99083.94
2018-04-12T20:09:22.667Z,99087.16
2018-04-12T20:11:50.084Z,99088.55
2018-04-12T20:14:17.511Z,99083.60
2018-04-12T20:16:44.921Z,99093.37
2018-04-12T20:19:12.616Z,99093.42
2018-04-12T20:21:40.040Z,99092.67
2018-04-12T20:24:07.451Z,99092.32
2018-04-12T20:26:34.879Z,99089.55
2018-04-12T20:29:02.307Z,99087.37
2018-04-12T20:31:29.741Z,99082.67
2018-04-12T20:33:57.155Z,99080.73
2018-04-12T20:36:24.634Z,99075.23
2018-04-12T20:38:52.059Z,99070.52
2018-04-12T20:41:19.480Z,99073.52
2018-04-12T20:43:46.883Z,99065.98
2018-04-12T20:46:14.566Z,99070.17
2018-04-12T20:48:41.932Z,99059.45
2018-04-12T20:51:09.345Z,99059.74
2018-04-12T20:53:36.796Z,99056.00
2018-04-12T20:56:04.235Z,99057.39
2018-04-12T20:58:31.654Z,99062.72
2018-04-12T21:00:59.228Z,99060.97
2018-04-12T21:03:26.637Z,99058.98
2018-04-12T21:05:54.051Z,99062.77
2018-04-12T21:08:21.590Z,99059.62
2018-04-12T21:10:49.021Z,99062.09
2018-04-12T21:13:16.413Z,99064.09
2018-04-12T21:15:43.844Z,99065.48
2018-04-12T21:18:11.264Z,99064.13
2018-04-12T21:20:38.683Z,99066.52
2018-04-12T21:23:06.087Z,99062.73
2018-04-12T21:25:33.522Z,99065.91
2018-04-12T21:28:00.941Z,99067.78
2018-04-12T21:30:28.378Z,99068.78
2018-04-12T21:32:55.804Z,99067.98
2018-04-12T21:35:23.229Z,99062.66
2018-04-12T21:37:50.645Z,99061.67
2018-04-12T21:40:18.065Z,99066.05
2018-04-12T21:42:45.472Z,99077.00
2018-04-12T21:45:13.044Z,99078.78
2018-04-12T21:47:40.456Z,99074.45
2018-04-12T21:50:07.864Z,99074.97
2018-04-12T21:52:35.296Z,99067.63
2018-04-12T21:55:02.704Z,99063.50
2018-04-12T21:57:30.125Z,99072.63
2018-04-12T21:59:57.569Z,99072.80
2018-04-12T22:02:24.975Z,99088.06
2018-04-12T22:04:52.413Z,99077.55
2018-04-12T22:07:19.829Z,99069.69
2018-04-12T22:09:47.243Z,99060.71
2018-04-12T22:12:14.669Z,99054.59
2018-04-12T22:14:42.107Z,99063.09
2018-04-12T22:17:09.535Z,99063.22
2018-04-12T22:19:36.952Z,99071.31
2018-04-12T22:22:04.511Z,99093.30
2018-04-12T22:24:31.931Z,99103.18
2018-04-12T22:26:59.360Z,99113.06
2018-04-12T22:29:26.780Z,99143.41
2018-04-12T22:31:54.200Z,99148.54
2018-04-12T22:34:21.608Z,99163.81
2018-04-12T22:36:49.035Z,99159.02
2018-04-12T22:39:16.468Z,99156.96
2018-04-12T22:41:43.884Z,99146.41
2018-04-12T22:44:11.307Z,99150.74
2018-04-12T22:46:38.732Z,99169.19
2018-04-12T22:49:06.456Z,99177.92
2018-04-12T22:51:33.855Z,99206.87
2018-04-12T22:54:01.288Z,99247.55
2018-04-12T22:56:28.685Z,99246.27
2018-04-12T22:58:56.103Z,99251.58
2018-04-12T23:01:23.508Z,99270.91
2018-04-12T23:03:50.945Z,99276.59
2018-04-12T23:14:50.302Z,99279.68
2018-04-12T23:17:17.668Z,99248.65
2018-04-12T23:19:45.075Z,99174.13
2018-04-12T23:22:12.710Z,99099.72
2018-04-12T23:24:40.121Z,99088.25
2018-04-12T23:27:07.538Z,99112.84
2018-04-12T23:29:34.957Z,99113.08
2018-04-12T23:32:02.360Z,99138.04
2018-04-12T23:34:29.768Z,99134.13
2018-04-12T23:36:57.168Z,99141.89
2018-04-12T23:39:24.843Z,99143.14
2018-04-12T23:41:52.248Z,99133.70
2018-04-12T23:44:19.665Z,99127.42
2018-04-12T23:46:47.071Z,99124.28
2018-04-12T23:49:14.471Z,99127.86
2018-04-12T23:51:41.880Z,99122.70
2018-04-12T23:54:09.288Z,99116.36
2018-04-12T23:56:36.844Z,99113.05
2018-04-12T23:59:04.243Z,99107.90
